Historyczne dane pomiarowe

Dodano dane terminowe – wersja testowa.

Dane z okresu 1951-2019

Wersja bazy: 1.34 [2019-03-16, lista zmian], aktualizacja planowana na 2019-04-15

Dane meteo z obszaru Polski uzyskane na podstawie danych udostępnionych przez Instytut Meteorologii i Gospodarki Wodnej – Państwowy Instytut Badawczy.

 

Wybierz Datę:    

       

TemperaturaWilgotnośćWiatrCiśnienieOpadyŚniegCzas trwania zjawisk
 Stacja t tx tn tng RH VA  wxwx mslp ppp RRR   cm mm wxwxwxwxwxwxwx
1961-08-14 15.3 19.4 11.6 8.4 76.0- 4.7 1.0---- 0.0------------
1961-08-13 15.2 17.2 12.4 11.2 78.0- 6.3 3.0---- 0.0------------
1961-08-12 17.6 22.0 14.7 12.0 92.3- 8.0 1.0---- 12.4------------
1961-08-11 18.3 18.7 17.6 16.0 97.3- 8.0 1.0---- 13.3------------
1961-08-10 21.6 27.4 15.9 16.9 81.3- 5.7 1.7---- 3.0------------
1961-08-09 21.3 26.4 16.4 12.6 75.8- 4.3 1.3---- 0.0------------
1961-08-08 18.1 24.0 10.1 7.9 76.0- 3.7 1.0---- 0.0------------
1961-08-07 18.6 22.4 15.3 15.5 92.5- 7.7 1.0---- 5.6------------
1961-08-06 22.7 30.4 15.5 13.0 73.0- 2.3 2.0---- 3.9------------
1961-08-05 19.2 24.5 15.7 14.5 75.0- 4.3 1.7---- 0.0------------
1961-08-04 14.8 19.5 8.5 5.3 75.3- 7.0 2.0---- 0.0------------
1961-08-03 16.0 18.8 13.8 11.5 87.0- 4.7 2.7---- 2.2------------
1961-08-02 16.1 25.9 9.1 6.1 70.0- 1.0 1.3---- 7.3------------
1961-08-01 14.1 19.2 10.2 11.2 86.0- 5.3 4.7---- 3.6------------
1961-07-31 13.3 13.8 12.6 12.4 94.5- 8.0 5.3---- 55.4------------
1961-07-30 13.7 17.5 9.4 7.6 84.8- 7.7 0.3---- 10.8------------
1961-07-29 14.8 19.4 12.5 12.1 80.3- 6.7 2.0---- 0.0------------
1961-07-28 16.2 19.0 14.6 12.5 87.3- 8.0 1.7---- 15.4------------
1961-07-27 20.1 25.9 15.2 11.5 63.5- 7.3 4.3---- 0.0------------
1961-07-26 17.2 22.7 11.4 8.5 68.8- 7.3 2.3---- 0.0------------
1961-07-25 14.6 17.7 12.1 9.9 75.8- 7.7 2.7---- 0.0------------
1961-07-24 13.6 16.8 11.0 8.4 81.5- 5.0 2.3---- 0.0------------
1961-07-23 14.7 16.9 12.4 12.5 82.5- 7.0 2.3---- 0.0------------
1961-07-22 15.7 18.5 13.9 13.5 88.0- 7.0 3.7---- 7.8------------
1961-07-21 14.9 18.7 13.6 11.2 88.3- 7.3 3.7---- 1.4------------
1961-07-20 15.3 21.5 9.5 6.6 81.3- 4.7 1.0---- 2.5------------
1961-07-19 15.2 19.6 9.9 7.3 83.8- 7.0 1.3---- 0.9------------
1961-07-18 15.0 19.0 10.9 11.4 83.8- 5.0 2.0---- 4.8------------
1961-07-17 15.5 21.6 10.8 9.7 80.0- 5.0 1.7---- 5.0------------
1961-07-16 16.3 20.7 13.3 10.9 84.5- 5.3 1.0---- 3.7------------
1961-07-15 16.9 24.1 12.4 9.1 75.5- 4.0 0.3---- 3.4------------
1961-07-14 15.3 18.3 8.8 13.5 73.0- 6.0 4.0---- 0.0------------
1961-07-13 21.4 29.4 16.4 14.4 74.8- 7.3 2.7---- 5.5------------
1961-07-12 20.1 27.1 14.2 11.5 74.3- 3.3 0.7---- 0.0------------
1961-07-11 16.1 21.2 9.5 6.0 72.5- 3.7 1.0---- 2.4------------
1961-07-10 13.2 17.5 9.2 8.8 83.0- 7.0 2.7---- 1.6------------
1961-07-09 14.2 19.0 9.4 5.9 79.3- 5.3 2.3---- 7.4------------
1961-07-08 15.6 22.5 8.6 5.5 63.8- 3.7 1.0---- 0.0------------
1961-07-07 13.0 15.8 8.1 7.9 73.5- 6.7 3.3---- 0.0------------
1961-07-06 10.8 15.2 8.3 4.9 83.8- 6.3 4.0---- 5.1------------
1961-07-05 14.8 18.1 12.8 11.7 65.3- 4.0 5.0---- 0.0------------
1961-07-04 19.6 26.0 16.4 16.0 73.0- 7.0 2.3---- 0.7------------
1961-07-03 24.5 34.4 13.2 9.9 56.3- 0.3 1.3---- 0.0------------
1961-07-02 22.0 30.5 10.2 5.5 59.5- 0.0 0.3---- 0.0------------
1961-07-01 20.8 28.1 8.9 5.9 60.8- 0.7 0.0---- 0.0------------
1961-06-30 19.0 26.7 9.1 5.1 63.0- 0.3 0.7---- 0.0------------
1961-06-29 16.1 22.2 10.5 6.4 65.5- 2.7 2.7---- 0.0------------
1961-06-28 16.9 19.6 13.6 13.8 53.3- 4.7 5.0---- 0.0------------
1961-06-27 23.6 32.3 17.1 14.8 74.0- 5.0 2.0---- 2.0------------
1961-06-26 22.6 29.3 14.5 10.2 65.0- 3.3 0.3---- 0.0------------
1961-06-25 22.6 28.5 15.5 11.9 57.5- 3.0 2.3---- 0.0------------
1961-06-24 19.0 23.5 13.8 11.0 57.8- 5.0 3.7---- 0.0------------
1961-06-23 18.9 23.0 15.4 14.7 70.5- 4.7 3.0---- 0.0------------
1961-06-22 16.0 23.4 6.3 2.4 71.0- 2.3 2.0---- 7.0------------
1961-06-21 15.4 25.1 7.4 2.9 66.8- 3.0 2.3---- 0.3------------
1961-06-20 15.2 20.1 8.3 6.4 61.0- 2.0 1.7---- 0.0------------
1961-06-19 18.7 21.9 16.7 15.9 68.5- 5.0 2.7---- 0.0------------
1961-06-18 20.8 27.4 13.1 10.5 59.3- 0.3 2.7---- 0.0------------
1961-06-17 16.3 23.2 6.9 3.9 70.0- 4.0 2.0---- 0.0------------
1961-06-16 14.1 18.0 10.1 10.1 73.8- 6.7 3.7---- 0.0------------
554.5 ms

 

Źródłem pochodzenia danych jest Instytut Meteorologii i Gospodarki Wodnej – Państwowy Instytut Badawczy. Dane Instytutu Meteorologii i Gospodarki Wodnej – Państwowego Instytutu Badawczego zostały przetworzone.

Dane źródłowe można odnaleźć na stronie https://dane.imgw.pl